createdAt,value
2023-03-10T00:01:12.053Z,78.83
2023-03-10T00:03:42.000Z,79.17
2023-03-10T00:06:12.795Z,79.32
2023-03-10T00:08:42.034Z,78.71
2023-03-10T00:11:10.872Z,78.67
2023-03-10T00:13:39.451Z,78.77
2023-03-10T00:16:08.784Z,78.95
2023-03-10T00:18:37.036Z,78.85
2023-03-10T00:21:07.217Z,78.88
2023-03-10T00:23:37.422Z,78.63
2023-03-10T00:26:06.252Z,78.56
2023-03-10T00:28:34.605Z,78.94
2023-03-10T00:31:05.989Z,78.94
2023-03-10T00:33:35.972Z,79.02
2023-03-10T00:36:08.279Z,79.07
2023-03-10T00:38:37.528Z,79.27
2023-03-10T00:41:07.650Z,79.31
2023-03-10T00:43:36.706Z,79.72
2023-03-10T00:46:05.679Z,79.27
2023-03-10T00:48:34.316Z,79.26
2023-03-10T00:51:04.433Z,79.35
2023-03-10T00:53:36.092Z,79.42
2023-03-10T00:56:08.018Z,79.11
2023-03-10T00:58:36.578Z,78.65
2023-03-10T01:01:07.063Z,79.61
2023-03-10T01:03:35.321Z,79.44
2023-03-10T01:06:03.545Z,79.58
2023-03-10T01:08:33.162Z,79.66
2023-03-10T01:11:01.506Z,79.54
2023-03-10T01:13:29.964Z,79.74
2023-03-10T01:15:58.328Z,79.80
2023-03-10T01:18:27.043Z,79.75
2023-03-10T01:20:55.315Z,79.46
2023-03-10T01:23:25.620Z,79.72
2023-03-10T01:25:55.366Z,79.68
2023-03-10T01:28:24.069Z,79.60
2023-03-10T01:30:52.345Z,79.79
2023-03-10T01:33:20.581Z,82.74
2023-03-10T01:35:48.739Z,82.22
2023-03-10T01:38:16.966Z,81.14
2023-03-10T01:40:50.245Z,80.90
2023-03-10T01:43:31.114Z,81.00
2023-03-10T01:46:44.169Z,80.70
2023-03-10T01:49:39.956Z,80.15
2023-03-10T01:52:13.443Z,80.19
2023-03-10T01:54:49.900Z,80.56
2023-03-10T01:57:24.827Z,80.62
2023-03-10T01:59:56.993Z,82.81
2023-03-10T02:02:27.011Z,83.91
2023-03-10T02:04:56.722Z,85.69
2023-03-10T02:07:28.309Z,85.90
2023-03-10T02:09:57.787Z,85.65
2023-03-10T02:12:26.362Z,83.89
2023-03-10T02:14:56.368Z,83.25
2023-03-10T02:17:27.710Z,83.00
2023-03-10T02:20:21.553Z,84.90
2023-03-10T02:22:50.084Z,86.69
2023-03-10T02:25:34.631Z,85.08
2023-03-10T02:28:05.680Z,86.44
2023-03-10T02:30:38.759Z,86.35
2023-03-10T02:33:10.876Z,86.57
2023-03-10T02:35:39.511Z,86.22
2023-03-10T02:38:12.400Z,84.96
2023-03-10T02:40:44.920Z,84.34
2023-03-10T02:43:23.607Z,83.73
2023-03-10T02:46:00.187Z,84.15
2023-03-10T02:48:32.638Z,85.55
2023-03-10T02:51:04.520Z,86.11
2023-03-10T02:53:32.961Z,83.96
2023-03-10T02:56:01.370Z,84.94
2023-03-10T02:58:34.184Z,85.46
2023-03-10T03:01:05.112Z,84.52
2023-03-10T03:03:36.938Z,84.60
2023-03-10T03:06:06.228Z,83.32
2023-03-10T03:08:34.961Z,82.62
2023-03-10T03:11:06.372Z,81.47
2023-03-10T03:13:36.427Z,81.58
2023-03-10T03:16:07.415Z,81.10
2023-03-10T03:18:36.615Z,80.16
2023-03-10T03:21:06.437Z,78.91
2023-03-10T03:23:35.081Z,78.42
2023-03-10T03:26:03.697Z,79.44
2023-03-10T03:28:32.723Z,79.78
2023-03-10T03:31:03.154Z,79.82
2023-03-10T03:33:32.420Z,78.97
2023-03-10T03:36:00.962Z,80.60
2023-03-10T03:38:29.873Z,79.88
2023-03-10T03:40:58.159Z,79.54
2023-03-10T03:43:27.703Z,79.77
2023-03-10T03:45:56.437Z,78.62
2023-03-10T03:48:26.523Z,78.34
2023-03-10T03:50:55.240Z,77.20
2023-03-10T03:53:29.925Z,77.78
2023-03-10T03:55:58.496Z,77.14
2023-03-10T03:58:28.989Z,79.00
2023-03-10T04:00:57.778Z,80.01
2023-03-10T04:03:29.244Z,79.57
2023-03-10T04:05:58.055Z,79.34
2023-03-10T04:08:26.825Z,79.11
2023-03-10T04:10:56.620Z,79.37
2023-03-10T04:13:27.652Z,79.54
2023-03-10T04:15:57.742Z,79.38
2023-03-10T04:18:29.172Z,78.56
2023-03-10T04:20:58.056Z,78.52
2023-03-10T04:23:26.605Z,78.32
2023-03-10T04:25:54.987Z,77.47
2023-03-10T04:28:23.143Z,76.80
2023-03-10T04:30:52.225Z,75.96
2023-03-10T04:33:23.898Z,76.13
2023-03-10T04:35:53.716Z,76.00
2023-03-10T04:38:24.152Z,75.73
2023-03-10T04:40:58.739Z,74.16
2023-03-10T04:43:31.323Z,74.90
2023-03-10T04:46:00.107Z,73.46
2023-03-10T04:48:29.248Z,72.90
2023-03-10T04:51:00.153Z,72.22
2023-03-10T04:53:32.621Z,72.58
2023-03-10T04:56:02.946Z,72.20
2023-03-10T04:58:35.932Z,73.13
2023-03-10T05:01:10.088Z,72.99
2023-03-10T05:03:42.184Z,72.37
2023-03-10T05:06:17.438Z,72.75
2023-03-10T05:08:50.335Z,73.26
2023-03-10T05:11:21.126Z,72.76
2023-03-10T05:13:49.326Z,72.17
2023-03-10T05:16:20.833Z,72.16
2023-03-10T05:18:50.445Z,71.23
2023-03-10T05:21:24.469Z,70.89
2023-03-10T05:23:55.245Z,70.75
2023-03-10T05:26:25.286Z,70.66
2023-03-10T05:28:53.532Z,70.57
2023-03-10T05:31:29.563Z,70.66
2023-03-10T05:34:04.137Z,70.49
2023-03-10T05:36:33.821Z,70.56
2023-03-10T05:39:05.987Z,70.36
2023-03-10T05:41:37.868Z,70.46
2023-03-10T05:44:07.079Z,70.67
2023-03-10T05:46:36.964Z,70.81
2023-03-10T05:49:05.348Z,70.95
2023-03-10T05:51:35.092Z,70.76
2023-03-10T05:54:06.397Z,71.69
2023-03-10T05:56:34.906Z,71.54
2023-03-10T05:59:04.624Z,72.30
2023-03-10T06:01:35.828Z,72.32
2023-03-10T06:04:04.197Z,72.27
2023-03-10T06:06:32.400Z,72.72
2023-03-10T06:09:02.231Z,72.60
2023-03-10T06:11:30.561Z,72.17
2023-03-10T06:13:58.666Z,72.17
2023-03-10T06:16:27.270Z,71.64
2023-03-10T06:18:56.214Z,72.44
2023-03-10T06:21:25.362Z,72.27
2023-03-10T06:23:53.508Z,72.71
2023-03-10T06:26:24.500Z,73.03
2023-03-10T06:28:52.719Z,72.60
2023-03-10T06:31:23.253Z,73.46
2023-03-10T06:33:52.302Z,72.81
2023-03-10T06:36:21.214Z,73.04
2023-03-10T06:38:49.701Z,72.72
2023-03-10T06:41:18.190Z,71.87
2023-03-10T06:43:48.283Z,71.03
2023-03-10T06:46:17.565Z,70.34
2023-03-10T06:48:45.741Z,69.71
2023-03-10T06:51:17.580Z,69.17
2023-03-10T06:53:46.332Z,68.30
2023-03-10T06:56:16.917Z,68.48
2023-03-10T06:58:47.393Z,68.24
2023-03-10T07:01:24.217Z,67.46
2023-03-10T07:03:52.631Z,67.46
2023-03-10T07:06:20.917Z,68.31
2023-03-10T07:08:49.892Z,67.99
2023-03-10T07:11:18.663Z,66.58
2023-03-10T07:13:48.800Z,66.41
2023-03-10T07:16:17.324Z,66.08
2023-03-10T07:18:45.657Z,64.89
2023-03-10T07:21:17.172Z,63.28
2023-03-10T07:23:45.365Z,63.29
2023-03-10T07:26:15.709Z,62.71
2023-03-10T07:28:43.787Z,62.30
2023-03-10T07:31:15.065Z,61.91
2023-03-10T07:33:43.506Z,62.73
2023-03-10T07:36:13.804Z,61.93
2023-03-10T07:38:42.001Z,61.64
2023-03-10T07:41:11.310Z,61.66
2023-03-10T07:43:39.558Z,61.21
2023-03-10T07:46:08.706Z,61.04
2023-03-10T07:48:38.620Z,60.04
2023-03-10T07:51:07.633Z,59.32
2023-03-10T07:53:36.858Z,59.13
2023-03-10T07:56:09.183Z,58.61
2023-03-10T07:58:37.940Z,58.35
2023-03-10T08:01:07.095Z,58.32
2023-03-10T08:03:35.940Z,58.41
2023-03-10T08:06:06.384Z,57.01
2023-03-10T08:08:34.809Z,57.18
2023-03-10T08:11:04.722Z,56.61
2023-03-10T08:13:33.401Z,55.83
2023-03-10T08:16:02.628Z,56.04
2023-03-10T08:18:31.969Z,55.28
2023-03-10T08:21:01.149Z,54.90
2023-03-10T08:23:30.580Z,54.51
2023-03-10T08:26:01.746Z,53.89
2023-03-10T08:28:30.744Z,54.16
2023-03-10T08:31:04.692Z,54.02
2023-03-10T08:33:34.047Z,53.56
2023-03-10T08:36:06.979Z,51.99
2023-03-10T08:38:36.832Z,51.49
2023-03-10T08:41:16.731Z,50.89
2023-03-10T08:43:47.185Z,51.06
2023-03-10T08:46:18.067Z,50.48
2023-03-10T08:48:46.341Z,50.54
2023-03-10T08:51:16.351Z,50.38
2023-03-10T08:53:48.187Z,49.23
2023-03-10T08:56:17.977Z,48.58
2023-03-10T08:58:46.531Z,48.82
2023-03-10T09:01:16.084Z,48.83
2023-03-10T09:03:45.807Z,47.61
2023-03-10T09:06:14.832Z,47.63
2023-03-10T09:08:43.211Z,47.86
2023-03-10T09:11:18.471Z,48.65
2023-03-10T09:13:46.890Z,47.62
2023-03-10T09:16:15.600Z,46.92
2023-03-10T09:18:44.374Z,47.07
2023-03-10T09:21:13.504Z,47.59
2023-03-10T09:23:43.459Z,46.93
2023-03-10T09:26:13.110Z,47.30
2023-03-10T09:28:41.440Z,46.71
2023-03-10T09:31:12.871Z,46.83
2023-03-10T09:33:42.525Z,46.17
2023-03-10T09:36:11.089Z,46.90
2023-03-10T09:38:39.421Z,47.36
2023-03-10T09:41:23.711Z,47.37
2023-03-10T09:44:02.343Z,47.55
2023-03-10T09:46:36.576Z,47.65
2023-03-10T09:49:10.840Z,47.32
2023-03-10T09:51:45.601Z,47.10
2023-03-10T09:54:32.025Z,47.21
2023-03-10T09:57:04.392Z,47.68
2023-03-10T09:59:36.842Z,47.17
2023-03-10T10:02:17.355Z,47.45
2023-03-10T10:04:45.862Z,46.96
2023-03-10T10:07:17.345Z,46.79
2023-03-10T10:09:53.278Z,47.21
2023-03-10T10:12:26.724Z,46.73
2023-03-10T10:14:58.929Z,47.13
2023-03-10T10:17:52.288Z,46.47
2023-03-10T10:20:24.026Z,46.99
2023-03-10T10:22:52.340Z,46.80
2023-03-10T10:25:22.309Z,46.19
2023-03-10T10:27:54.160Z,47.21
2023-03-10T10:30:36.830Z,46.45
2023-03-10T10:33:07.127Z,46.67
2023-03-10T10:35:37.324Z,46.59
2023-03-10T10:38:07.975Z,46.62
2023-03-10T10:40:47.207Z,46.29
2023-03-10T10:43:19.661Z,46.19
2023-03-10T10:45:55.265Z,45.82
2023-03-10T10:48:37.673Z,46.23
2023-03-10T10:51:06.501Z,47.47
2023-03-10T10:53:36.151Z,46.53
2023-03-10T10:56:07.000Z,46.87
2023-03-10T10:58:38.480Z,46.73
2023-03-10T11:01:08.391Z,46.02
2023-03-10T11:03:37.976Z,46.03
2023-03-10T11:06:16.133Z,45.82
2023-03-10T11:08:51.009Z,45.86
2023-03-10T11:11:25.339Z,45.88
2023-03-10T11:14:08.458Z,45.20
2023-03-10T11:16:49.531Z,45.31
2023-03-10T11:19:26.563Z,44.46
2023-03-10T11:22:02.253Z,44.86
2023-03-10T11:24:37.452Z,45.05
2023-03-10T11:27:12.221Z,44.60
2023-03-10T11:30:01.254Z,44.86
2023-03-10T11:32:38.159Z,44.89
2023-03-10T11:35:19.968Z,44.95
2023-03-10T11:37:53.118Z,44.71
2023-03-10T11:40:28.431Z,44.50
2023-03-10T11:43:02.491Z,45.03
2023-03-10T11:45:36.451Z,45.13
2023-03-10T11:48:21.280Z,45.03
2023-03-10T11:50:53.491Z,44.79
2023-03-10T11:53:31.721Z,45.04
2023-03-10T11:56:01.763Z,44.66
2023-03-10T11:58:46.830Z,45.47
2023-03-10T12:01:21.032Z,45.13
2023-03-10T12:03:57.082Z,45.55
2023-03-10T12:06:34.084Z,45.84
2023-03-10T12:09:04.074Z,45.62
2023-03-10T12:11:32.561Z,45.33
2023-03-10T12:14:01.994Z,44.27
2023-03-10T12:16:37.634Z,44.11
2023-03-10T12:19:07.123Z,44.14
2023-03-10T12:21:36.087Z,43.72
2023-03-10T12:24:06.288Z,42.04
2023-03-10T12:27:03.438Z,41.35
2023-03-10T12:29:42.777Z,41.17
2023-03-10T12:32:48.333Z,40.68
2023-03-10T12:35:44.335Z,40.32
2023-03-10T12:38:36.579Z,38.74
2023-03-10T12:41:05.209Z,38.70
2023-03-10T12:43:57.588Z,37.56
2023-03-10T12:46:40.478Z,38.12
2023-03-10T12:49:29.453Z,39.32
2023-03-10T12:52:14.154Z,40.46
2023-03-10T12:55:05.113Z,40.13
2023-03-10T12:57:42.150Z,40.15
2023-03-10T13:00:20.590Z,40.71
2023-03-10T13:02:53.802Z,40.69
2023-03-10T13:05:26.544Z,40.53
2023-03-10T13:07:58.244Z,41.10
2023-03-10T13:10:30.340Z,41.21
2023-03-10T13:13:03.438Z,41.05
2023-03-10T13:15:34.011Z,41.01
2023-03-10T13:18:19.032Z,40.89
2023-03-10T13:20:50.030Z,41.85
2023-03-10T13:23:22.996Z,42.54
2023-03-10T13:25:55.875Z,42.64
2023-03-10T13:28:24.427Z,41.87
2023-03-10T13:30:52.726Z,42.21
2023-03-10T13:33:25.869Z,42.31
2023-03-10T13:35:55.781Z,41.19
2023-03-10T13:38:25.395Z,41.55
2023-03-10T13:41:02.208Z,42.05
2023-03-10T13:43:37.282Z,43.37
2023-03-10T13:46:09.809Z,42.76
2023-03-10T13:48:40.969Z,42.62
2023-03-10T13:51:19.199Z,42.61
2023-03-10T13:53:49.953Z,42.58
2023-03-10T13:56:25.027Z,42.62
2023-03-10T13:58:55.673Z,43.16
2023-03-10T14:01:26.340Z,43.53
2023-03-10T14:03:57.135Z,43.61
2023-03-10T14:06:28.108Z,41.83
2023-03-10T14:08:57.062Z,42.97
2023-03-10T14:11:34.288Z,42.53
2023-03-10T14:14:05.384Z,43.32
2023-03-10T14:16:53.889Z,43.86
2023-03-10T14:19:48.464Z,44.07
2023-03-10T14:22:26.666Z,44.09
2023-03-10T14:24:54.745Z,43.76
2023-03-10T14:27:23.427Z,43.76
2023-03-10T14:29:53.462Z,43.42
2023-03-10T14:32:21.933Z,42.89
2023-03-10T14:34:50.698Z,43.09
2023-03-10T14:37:19.267Z,44.42
2023-03-10T14:39:48.704Z,45.44
2023-03-10T14:42:21.831Z,46.83
2023-03-10T14:44:51.276Z,46.25
2023-03-10T14:47:19.573Z,45.35
2023-03-10T14:49:48.139Z,44.99
2023-03-10T14:52:18.262Z,44.73
2023-03-10T14:54:47.423Z,46.32
2023-03-10T14:57:21.578Z,46.69
2023-03-10T14:59:49.902Z,45.64
2023-03-10T15:02:23.282Z,46.33
2023-03-10T15:04:51.565Z,45.05
2023-03-10T15:07:19.749Z,43.71
2023-03-10T15:09:49.571Z,43.47
2023-03-10T15:12:20.975Z,43.63
2023-03-10T15:14:53.703Z,43.45
2023-03-10T15:17:22.619Z,44.21
2023-03-10T15:19:50.966Z,45.69
2023-03-10T15:22:19.298Z,46.39
2023-03-10T15:24:47.338Z,45.20
2023-03-10T15:27:16.257Z,44.78
2023-03-10T15:29:45.722Z,45.16
2023-03-10T15:32:13.868Z,45.19
2023-03-10T15:34:42.102Z,45.00
2023-03-10T15:37:10.287Z,45.17
2023-03-10T15:39:38.442Z,45.28
2023-03-10T15:42:06.667Z,45.57
2023-03-10T15:44:34.935Z,46.41
2023-03-10T15:47:04.412Z,45.73
2023-03-10T15:49:32.971Z,46.38
2023-03-10T15:52:01.095Z,45.93
2023-03-10T15:54:29.259Z,45.69
2023-03-10T15:56:57.345Z,45.92
2023-03-10T15:59:25.645Z,46.26
2023-03-10T16:01:53.938Z,46.32
2023-03-10T16:04:23.985Z,46.20
2023-03-10T16:06:52.281Z,46.49
2023-03-10T16:09:20.310Z,46.63
2023-03-10T16:11:49.119Z,46.91
2023-03-10T16:14:17.211Z,47.36
2023-03-10T16:16:45.279Z,47.49
2023-03-10T16:19:13.430Z,48.05
2023-03-10T16:21:42.853Z,47.97
2023-03-10T16:24:11.439Z,48.04
2023-03-10T16:26:43.967Z,47.30
2023-03-10T16:29:12.852Z,47.68
2023-03-10T16:31:41.060Z,47.87
2023-03-10T16:34:09.441Z,48.10
2023-03-10T16:36:37.524Z,48.45
2023-03-10T16:39:12.669Z,48.80
2023-03-10T16:41:40.892Z,49.64
2023-03-10T16:44:12.448Z,48.76
2023-03-10T16:46:40.849Z,48.51
2023-03-10T16:49:15.653Z,48.58
2023-03-10T16:51:45.352Z,48.52
2023-03-10T16:54:16.952Z,48.84
2023-03-10T16:56:47.673Z,49.04
2023-03-10T16:59:18.437Z,48.69
2023-03-10T17:01:47.018Z,48.59
2023-03-10T17:04:15.373Z,49.99
2023-03-10T17:06:44.069Z,49.96
2023-03-10T17:09:13.496Z,50.46
2023-03-10T17:11:46.442Z,50.81
2023-03-10T17:14:16.624Z,52.00
2023-03-10T17:16:45.897Z,51.98
2023-03-10T17:19:16.902Z,51.81
2023-03-10T17:21:47.047Z,53.27
2023-03-10T17:24:17.066Z,55.42
2023-03-10T17:26:47.097Z,57.91
2023-03-10T17:29:15.787Z,57.88
2023-03-10T17:31:49.066Z,60.49
2023-03-10T17:34:17.366Z,60.53
2023-03-10T17:36:46.994Z,67.01
2023-03-10T17:39:19.746Z,70.57
2023-03-10T17:41:49.743Z,72.34
2023-03-10T17:44:18.665Z,71.70
2023-03-10T17:46:46.749Z,74.01
2023-03-10T17:49:16.477Z,72.90
2023-03-10T17:51:46.387Z,73.01
2023-03-10T17:54:16.772Z,74.18
2023-03-10T17:56:44.991Z,75.10
2023-03-10T17:59:15.061Z,75.08
2023-03-10T18:01:45.029Z,74.20
2023-03-10T18:04:13.900Z,74.80
2023-03-10T18:06:42.608Z,75.04
2023-03-10T18:09:13.875Z,72.86
2023-03-10T18:11:42.663Z,72.43
2023-03-10T18:14:10.932Z,71.93
2023-03-10T18:16:41.299Z,71.74
2023-03-10T18:19:11.114Z,70.66
2023-03-10T18:21:39.716Z,72.02
2023-03-10T18:24:08.820Z,73.14
2023-03-10T18:26:38.100Z,74.53
2023-03-10T18:29:06.198Z,74.58
2023-03-10T18:31:35.629Z,75.07
2023-03-10T18:34:05.878Z,74.57
2023-03-10T18:36:34.415Z,74.30
2023-03-10T18:39:04.018Z,76.10
2023-03-10T18:41:32.882Z,76.02
2023-03-10T18:44:01.202Z,77.15
2023-03-10T18:46:29.789Z,77.07
2023-03-10T18:48:57.905Z,76.51
2023-03-10T18:51:28.756Z,77.22
2023-03-10T18:53:57.580Z,78.05
2023-03-10T18:56:29.054Z,77.03
2023-03-10T18:58:57.311Z,76.23
2023-03-10T19:01:25.738Z,75.70
2023-03-10T19:03:53.889Z,75.06
2023-03-10T19:06:23.886Z,76.31
2023-03-10T19:08:53.922Z,77.13
2023-03-10T19:11:24.309Z,77.38
2023-03-10T19:13:52.878Z,77.06
2023-03-10T19:16:21.354Z,76.70
2023-03-10T19:18:49.747Z,77.46
2023-03-10T19:21:17.812Z,76.37
2023-03-10T19:23:46.052Z,75.72
2023-03-10T19:26:15.569Z,75.78
2023-03-10T19:28:44.487Z,75.28
2023-03-10T19:31:13.935Z,74.52
2023-03-10T19:33:42.544Z,74.15
2023-03-10T19:36:13.253Z,74.05
2023-03-10T19:38:42.851Z,76.06
2023-03-10T19:41:17.429Z,76.01
2023-03-10T19:43:47.252Z,76.23
2023-03-10T19:46:16.358Z,76.04
2023-03-10T19:48:45.562Z,75.73
2023-03-10T19:51:21.419Z,76.44
2023-03-10T19:53:49.629Z,75.16
2023-03-10T19:56:19.932Z,74.21
2023-03-10T19:58:49.408Z,73.72
2023-03-10T20:01:19.896Z,73.49
2023-03-10T20:03:48.307Z,72.22
2023-03-10T20:06:16.434Z,71.93
2023-03-10T20:08:44.550Z,76.52
2023-03-10T20:11:14.763Z,77.66
2023-03-10T20:13:46.621Z,74.31
2023-03-10T20:16:17.551Z,71.91
2023-03-10T20:18:45.697Z,71.16
2023-03-10T20:21:13.852Z,71.05
2023-03-10T20:23:42.462Z,70.83
2023-03-10T20:26:11.799Z,70.46
2023-03-10T20:28:40.720Z,69.91
2023-03-10T20:31:10.193Z,70.08
2023-03-10T20:33:38.320Z,70.06
2023-03-10T20:36:08.694Z,70.11
2023-03-10T20:38:36.937Z,69.78
2023-03-10T20:41:05.410Z,69.49
2023-03-10T20:43:33.662Z,69.39
2023-03-10T20:46:01.759Z,69.33
2023-03-10T20:48:31.297Z,69.54
2023-03-10T20:51:01.886Z,69.68
2023-03-10T20:53:32.245Z,70.03
2023-03-10T20:56:00.962Z,70.14
2023-03-10T20:58:29.410Z,70.27
2023-03-10T21:00:57.550Z,69.87
2023-03-10T21:03:27.253Z,69.31
2023-03-10T21:05:56.751Z,68.96
2023-03-10T21:08:24.773Z,69.07
2023-03-10T21:10:52.959Z,69.35
2023-03-10T21:13:21.036Z,69.66
2023-03-10T21:15:49.095Z,70.14
2023-03-10T21:18:17.178Z,69.76
2023-03-10T21:20:45.255Z,69.83
2023-03-10T21:23:14.734Z,70.06
2023-03-10T21:25:42.884Z,70.26
2023-03-10T21:28:11.291Z,70.46
2023-03-10T21:30:39.505Z,70.40
2023-03-10T21:33:11.084Z,70.57
2023-03-10T21:35:40.646Z,70.62
2023-03-10T21:38:08.704Z,70.86
2023-03-10T21:40:38.242Z,70.30
2023-03-10T21:43:06.340Z,70.95
2023-03-10T21:45:37.397Z,70.56
2023-03-10T21:48:06.384Z,71.20
2023-03-10T21:50:34.569Z,71.44
2023-03-10T21:53:02.810Z,71.53
2023-03-10T21:55:33.133Z,70.58
2023-03-10T21:58:03.123Z,71.18
2023-03-10T22:00:31.225Z,71.85
2023-03-10T22:02:59.307Z,71.70
2023-03-10T22:05:27.457Z,70.80
2023-03-10T22:07:56.924Z,70.84
2023-03-10T22:10:25.016Z,71.34
2023-03-10T22:12:53.113Z,71.65
2023-03-10T22:15:26.049Z,71.25
2023-03-10T22:17:55.368Z,70.83
2023-03-10T22:20:26.089Z,70.19
2023-03-10T22:22:54.364Z,70.79
2023-03-10T22:25:23.120Z,71.89
2023-03-10T22:27:54.079Z,70.95
2023-03-10T22:30:25.543Z,71.29
2023-03-10T22:32:53.964Z,72.26
2023-03-10T22:35:22.725Z,72.90
2023-03-10T22:37:51.449Z,74.22
2023-03-10T22:40:21.124Z,75.89
2023-03-10T22:42:49.829Z,75.35
2023-03-10T22:45:20.943Z,76.09
2023-03-10T22:47:53.598Z,76.93
2023-03-10T22:50:24.036Z,79.17
2023-03-10T22:52:52.214Z,78.90
2023-03-10T22:55:23.697Z,76.09
2023-03-10T22:57:51.856Z,75.35
2023-03-10T23:00:21.795Z,74.41
2023-03-10T23:02:53.859Z,73.90
2023-03-10T23:05:22.638Z,74.84
2023-03-10T23:07:50.903Z,74.84
2023-03-10T23:10:22.237Z,75.29
2023-03-10T23:12:50.387Z,77.17
2023-03-10T23:15:25.714Z,76.77
2023-03-10T23:17:56.750Z,76.03
2023-03-10T23:20:27.448Z,75.57
2023-03-10T23:22:57.295Z,73.85
2023-03-10T23:25:29.522Z,74.40
2023-03-10T23:27:58.303Z,75.03
2023-03-10T23:30:26.809Z,74.10
2023-03-10T23:32:57.236Z,73.56
2023-03-10T23:35:28.251Z,72.75
2023-03-10T23:37:56.553Z,71.33
2023-03-10T23:40:27.245Z,71.17
2023-03-10T23:42:55.752Z,72.77
2023-03-10T23:45:25.026Z,72.45
2023-03-10T23:47:55.564Z,72.53
2023-03-10T23:50:27.075Z,72.54
2023-03-10T23:52:55.244Z,72.79
2023-03-10T23:55:26.335Z,72.31
2023-03-10T23:57:54.771Z,71.56
